Time;durP1;ratioP1;P1;durP2;ratioP2;P2;SDS_P1;SDS_P2;PMS_P1;PMS_P2;Temp;Humidity;BMP_temperature;BMP_pressure;BME280_temperature;BME280_humidity;BME280_pressure;Samples;Min_cycle;Max_cycle;Signal;HPM_P1;HPM_P2
2023/01/19 07:07:55;;;;;;;;;5.00;3.00;;;;;17.52;44.19;100534.53;5073007;27;45894;-72
2023/01/19 07:10:21;;;;;;;;;2.25;2.25;;;;;17.86;44.57;100528.06;5063358;27;45482;-72
2023/01/19 07:12:47;;;;;;;;;3.00;3.00;;;;;18.41;44.79;100534.84;5070310;27;46334;-72
2023/01/19 07:15:14;;;;;;;;;3.50;2.25;;;;;18.99;44.86;100532.31;5083487;27;45552;-71
2023/01/19 07:17:41;;;;;;;;;4.00;3.00;;;;;19.55;45.08;100536.06;5070513;27;45478;-71
2023/01/19 07:20:08;;;;;;;;;3.50;3.50;;;;;20.03;44.61;100530.63;5066293;27;45380;-72
2023/01/19 07:22:36;;;;;;;;;2.25;2.25;;;;;20.49;44.38;100535.16;5054475;28;45765;-71
2023/01/19 07:25:01;;;;;;;;;3.25;3.00;;;;;20.86;44.05;100531.47;5067261;27;45451;-70
2023/01/19 07:27:27;;;;;;;;;2.33;2.33;;;;;21.21;43.80;100533.44;5064945;27;45520;-72
2023/01/19 07:29:53;;;;;;;;;2.00;2.00;;;;;21.49;43.21;100527.88;5064079;27;45546;-72
2023/01/19 07:32:18;;;;;;;;;4.33;3.67;;;;;21.73;43.00;100529.03;5057732;28;45500;-73
2023/01/19 07:34:44;;;;;;;;;2.00;2.00;;;;;21.96;42.86;100532.00;5068372;28;46380;-73
2023/01/19 07:37:09;;;;;;;;;3.67;3.67;;;;;22.19;42.46;100542.22;5069129;28;46096;-73
2023/01/19 07:39:35;;;;;;;;;3.00;2.00;;;;;22.39;42.73;100548.16;5070829;28;45336;-72
2023/01/19 07:42:00;;;;;;;;;3.00;3.00;;;;;22.57;42.09;100547.22;5059872;27;45537;-72
2023/01/19 07:44:26;;;;;;;;;4.00;3.00;;;;;22.76;42.35;100554.16;5070901;28;45922;-72
2023/01/19 07:46:51;;;;;;;;;3.67;3.67;;;;;22.90;41.51;100549.94;5056738;28;46424;-71
2023/01/19 07:49:17;;;;;;;;;2.33;2.33;;;;;23.05;41.59;100547.41;5057968;27;45931;-71
2023/01/19 07:51:42;;;;;;;;;2.00;2.00;;;;;23.19;41.31;100548.59;5053175;28;46060;-74
2023/01/19 07:54:07;;;;;;;;;3.00;2.00;;;;;23.35;41.07;100546.91;5053678;27;46694;-74
2023/01/19 07:56:33;;;;;;;;;2.00;2.00;;;;;23.48;41.49;100546.34;5057230;28;46393;-72
2023/01/19 07:58:58;;;;;;;;;5.00;1.67;;;;;23.60;41.42;100549.53;5073799;27;45607;-71
2023/01/19 08:01:24;;;;;;;;;2.67;2.67;;;;;23.68;41.22;100550.38;5064907;27;45619;-73
2023/01/19 08:03:49;;;;;;;;;3.00;3.00;;;;;23.80;40.51;100553.53;5061245;27;45877;-73
2023/01/19 08:06:36;;;;;;;;;6.00;3.67;;;;;23.89;40.68;100550.78;5063161;27;46239;-73
2023/01/19 08:09:04;;;;;;;;;2.67;2.67;;;;;23.96;39.95;100546.38;5088393;27;45700;-73
2023/01/19 08:11:30;;;;;;;;;2.67;2.67;;;;;24.03;40.42;100546.53;5074055;27;45458;-73
2023/01/19 08:13:55;;;;;;;;;2.00;2.00;;;;;24.12;40.54;100539.22;5072428;27;45400;-72
2023/01/19 08:16:21;;;;;;;;;1.67;1.67;;;;;24.15;40.22;100542.41;5067486;27;45546;-71
2023/01/19 08:18:46;;;;;;;;;3.67;3.67;;;;;24.25;40.23;100552.19;5055385;27;45477;-71
2023/01/19 08:21:11;;;;;;;;;5.00;5.00;;;;;24.29;40.07;100558.94;5053841;28;45714;-71
2023/01/19 08:23:37;;;;;;;;;5.00;4.33;;;;;24.33;40.04;100561.09;5076383;27;45473;-71
2023/01/19 08:26:26;;;;;;;;;5.67;4.00;;;;;24.39;39.86;100564.16;5075166;27;47101;-71
2023/01/19 08:28:55;;;;;;;;;3.00;3.00;;;;;24.43;39.95;100565.47;5067595;28;45488;-72
2023/01/19 08:31:20;;;;;;;;;4.33;3.00;;;;;24.43;40.02;100565.47;5062865;28;45546;-72
2023/01/19 08:33:46;;;;;;;;;5.00;3.00;;;;;24.48;39.31;100574.75;5061668;28;45637;-72
2023/01/19 08:36:11;;;;;;;;;4.00;4.00;;;;;24.52;39.66;100566.28;5071276;28;46345;-73
2023/01/19 08:38:39;;;;;;;;;5.00;3.00;;;;;24.52;39.80;100569.00;5084045;27;45460;-72
2023/01/19 08:41:04;;;;;;;;;4.00;4.00;;;;;24.55;39.68;100569.47;5070556;27;45695;-72
2023/01/19 08:43:30;;;;;;;;;8.67;5.33;;;;;24.59;39.29;100572.66;5060328;28;45547;-71
2023/01/19 08:45:55;;;;;;;;;3.00;3.00;;;;;24.59;39.57;100578.94;5058817;27;48817;-72
2023/01/19 08:48:22;;;;;;;;;4.00;4.00;;;;;24.62;39.37;100569.59;5074727;27;45586;-72
2023/01/19 08:50:48;;;;;;;;;4.67;3.67;;;;;24.59;39.33;100570.81;5059504;28;45480;-72
2023/01/19 08:53:15;;;;;;;;;4.67;3.67;;;;;24.64;39.32;100572.97;5059989;28;47032;-70
2023/01/19 08:55:40;;;;;;;;;4.00;3.00;;;;;24.68;39.04;100581.59;5058837;28;46294;-72
2023/01/19 08:58:09;;;;;;;;;14.33;13.67;;;;;24.68;39.36;100579.72;5059928;27;45568;-73
2023/01/19 09:00:36;;;;;;;;;40.75;32.25;;;;;24.66;39.16;100561.94;5049663;28;46239;-82
2023/01/19 09:03:03;;;;;;;;;48.50;39.25;;;;;24.65;39.04;100568.38;5059524;28;45630;-78
2023/01/19 09:05:34;;;;;;;;;69.00;52.75;;;;;24.64;39.00;100578.38;5062002;27;45521;-78
2023/01/19 09:08:01;;;;;;;;;76.50;60.25;;;;;24.61;38.82;100581.47;5063182;27;45497;-78
2023/01/19 09:10:30;;;;;;;;;73.50;57.00;;;;;24.60;38.88;100579.78;5067420;28;45575;-77
2023/01/19 09:12:55;;;;;;;;;73.50;53.75;;;;;24.56;38.85;100571.16;5062519;28;45549;-73
2023/01/19 09:15:21;;;;;;;;;73.50;59.25;;;;;24.53;38.49;100560.69;5057573;28;46575;-74
2023/01/19 09:17:46;;;;;;;;;76.25;62.50;;;;;24.56;38.75;100568.44;5057087;28;49093;-76
2023/01/19 09:20:12;;;;;;;;;79.50;68.25;;;;;24.56;38.63;100563.00;5058185;28;45677;-76
2023/01/19 09:22:38;;;;;;;;;82.00;70.25;;;;;24.58;38.26;100566.41;5058166;27;45519;-75
2023/01/19 09:25:06;;;;;;;;;83.50;72.00;;;;;24.58;39.22;100562.84;5057262;27;46045;-76
2023/01/19 12:27:41;;;;;;;;;43.50;36.00;;;;;17.23;43.59;100478.88;5075329;27;45496;-76
2023/01/19 12:30:18;;;;;;;;;23.75;23.75;;;;;17.67;44.27;100477.81;5062186;27;45361;-73
2023/01/19 12:32:43;;;;;;;;;40.50;35.25;;;;;18.20;44.14;100468.66;5064635;27;45770;-74
2023/01/19 12:35:46;;;;;;;;;39.25;34.50;;;;;18.86;44.32;100478.81;5064160;27;45640;-82
2023/01/19 12:38:33;;;;;;;;;32.75;27.00;;;;;19.52;43.93;100463.66;5061507;28;45558;-76
2023/01/19 12:41:19;;;;;;;;;32.75;29.00;;;;;19.99;44.02;100459.19;5054888;28;45469;-75
2023/01/19 12:43:46;;;;;;;;;29.75;27.00;;;;;20.40;43.61;100467.66;5067524;27;45487;-75
2023/01/19 12:46:26;;;;;;;;;32.25;25.50;;;;;20.79;43.70;100460.25;5062076;27;45777;-74
2023/01/19 12:48:52;;;;;;;;;28.00;25.75;;;;;21.10;43.10;100456.25;5064942;27;46484;-74
2023/01/19 12:51:25;;;;;;;;;27.50;26.50;;;;;21.40;42.72;100462.16;5060079;27;45518;-74
2023/01/19 12:53:56;;;;;;;;;30.75;27.00;;;;;21.68;43.01;100461.94;5067946;27;46539;-77
2023/01/19 12:56:35;;;;;;;;;32.00;24.75;;;;;21.91;42.85;100456.00;5068642;27;45555;-75
2023/01/19 12:59:02;;;;;;;;;31.00;27.50;;;;;22.11;42.60;100451.97;5068065;28;46607;-74
2023/01/19 13:01:28;;;;;;;;;23.00;20.75;;;;;22.29;42.19;100459.09;5066098;27;46255;-74
2023/01/19 13:04:05;;;;;;;;;31.25;27.00;;;;;22.48;41.73;100457.91;5069512;27;45571;-77
2023/01/19 13:06:46;;;;;;;;;27.25;23.50;;;;;22.64;41.55;100467.06;5061868;27;45875;-76
2023/01/19 13:09:31;;;;;;;;;28.50;25.00;;;;;22.77;41.54;100470.13;5053610;27;46031;-74
2023/01/19 13:12:22;;;;;;;;;25.25;23.25;;;;;22.89;41.21;100450.84;5063745;28;45761;-74
2023/01/19 13:14:49;;;;;;;;;24.75;21.75;;;;;23.00;41.63;100455.03;5072051;27;45731;-76
2023/01/19 13:17:30;;;;;;;;;26.25;22.00;;;;;23.14;41.32;100448.09;5053122;27;45730;-76
2023/01/19 13:20:01;;;;;;;;;20.50;18.50;;;;;23.26;41.14;100446.69;5056258;28;45900;-77
2023/01/19 13:22:48;;;;;;;;;27.00;23.50;;;;;23.40;40.82;100444.31;5083838;27;45603;-77
2023/01/19 13:25:25;;;;;;;;;21.25;18.75;;;;;23.55;41.18;100444.44;5066397;27;45982;-81
2023/01/19 13:27:50;;;;;;;;;24.25;20.25;;;;;23.67;40.73;100437.59;5059783;27;45665;-74
2023/01/19 13:30:20;;;;;;;;;26.25;26.25;;;;;23.81;40.61;100440.56;5075011;27;46215;-77
2023/01/19 13:32:46;;;;;;;;;21.00;19.50;;;;;23.92;40.26;100437.44;5074555;27;45495;-77
2023/01/19 13:35:16;;;;;;;;;22.25;21.25;;;;;24.05;40.57;100431.47;5063524;27;45715;-80
2023/01/19 13:37:44;;;;;;;;;28.00;20.75;;;;;24.15;40.40;100425.81;5069311;27;45493;-82
2023/01/19 13:40:24;;;;;;;;;22.75;20.25;;;;;24.29;40.17;100429.63;5062530;28;45552;-87
2023/01/19 13:42:52;;;;;;;;;19.67;18.67;;;;;24.39;40.02;100426.66;5059253;28;45609;-78
2023/01/19 13:45:33;;;;;;;;;20.67;19.00;;;;;24.50;40.29;100424.53;5061422;28;46411;-76
2023/01/19 13:48:04;;;;;;;;;21.25;20.25;;;;;24.56;39.84;100429.25;5073868;28;45443;-76
2023/01/19 13:50:33;;;;;;;;;19.50;15.50;;;;;24.60;39.79;100425.09;5067824;28;46013;-77
2023/01/19 13:52:59;;;;;;;;;21.00;20.00;;;;;24.58;39.70;100427.19;5071700;27;45821;-76
2023/01/19 13:55:29;;;;;;;;;18.50;18.00;;;;;24.61;39.77;100410.53;5071326;27;45537;-76
2023/01/19 13:57:54;;;;;;;;;17.00;17.00;;;;;24.63;39.67;100407.63;5051730;28;45562;-75
2023/01/19 14:00:22;;;;;;;;;22.00;20.00;;;;;24.68;39.44;100418.78;5071744;28;46215;-83
2023/01/19 14:02:58;;;;;;;;;19.75;19.75;;;;;24.70;39.51;100409.44;5059347;27;45685;-82
2023/01/19 14:05:28;;;;;;;;;17.33;15.00;;;;;24.76;39.65;100407.84;5058921;28;45880;-85
2023/01/19 14:08:00;;;;;;;;;17.67;17.67;;;;;24.82;39.66;100398.97;5061809;28;45587;-81
2023/01/19 14:10:26;;;;;;;;;18.67;17.67;;;;;24.89;39.33;100409.94;5070776;28;46583;-82
2023/01/19 14:13:12;;;;;;;;;17.67;16.33;;;;;24.97;39.51;100409.03;5050732;28;46359;-83
2023/01/19 14:15:39;;;;;;;;;17.67;16.67;;;;;25.03;39.09;100408.28;5057969;28;45579;-80
2023/01/19 14:18:29;;;;;;;;;20.00;18.00;;;;;25.09;39.26;100406.69;5064462;28;46151;-85
2023/01/19 14:20:57;;;;;;;;;14.00;14.00;;;;;25.17;39.51;100412.00;5053698;27;46449;-87
2023/01/19 14:23:46;;;;;;;;;19.00;13.00;;;;;25.23;39.35;100410.44;5060565;28;45792;-85
2023/01/19 14:26:36;;;;;;;;;12.67;12.67;;;;;25.27;39.07;100401.69;5060623;27;45466;-86
2023/01/19 14:29:32;;;;;;;;;16.00;16.00;;;;;25.33;38.95;100404.69;5056387;28;45523;-87
2023/01/19 14:32:00;;;;;;;;;18.00;17.00;;;;;25.37;39.06;100398.69;5062178;28;45538;-87
2023/01/19 14:34:37;;;;;;;;;18.00;13.67;;;;;25.41;38.89;100396.44;5072349;28;45870;-82
2023/01/19 14:37:13;;;;;;;;;19.00;16.33;;;;;25.45;38.52;100396.91;5070692;28;45514;-83
2023/01/19 14:39:43;;;;;;;;;14.67;14.00;;;;;25.49;38.99;100396.34;5059219;28;47764;-81
2023/01/19 14:42:20;;;;;;;;;14.67;14.33;;;;;25.53;38.48;100399.50;5061828;28;45713;-86
2023/01/19 14:44:50;;;;;;;;;13.00;12.67;;;;;25.52;38.73;100392.41;5061319;28;45868;-87
2023/01/19 14:47:34;;;;;;;;;12.67;12.00;;;;;25.56;38.48;100401.88;5059802;28;45510;-89
2023/01/19 14:50:08;;;;;;;;;16.67;12.67;;;;;25.54;38.26;100401.19;5058383;28;45515;-81
2023/01/19 14:52:38;;;;;;;;;11.33;11.33;;;;;25.57;38.33;100397.28;5061496;27;47246;-76
2023/01/19 14:55:06;;;;;;;;;11.00;11.00;;;;;25.57;38.65;100395.41;5060796;28;45553;-88
2023/01/19 14:57:36;;;;;;;;;12.00;12.00;;;;;25.69;38.60;100403.91;5069217;28;45495;-85
2023/01/19 15:00:11;;;;;;;;;20.00;15.67;;;;;25.75;38.65;100405.03;5054009;28;46864;-81
2023/01/19 15:02:37;;;;;;;;;21.33;19.00;;;;;25.81;38.32;100406.13;5059299;27;45744;-83
2023/01/19 15:05:02;;;;;;;;;21.33;18.00;;;;;25.84;38.24;100403.03;5040536;28;45862;-83
2023/01/19 15:07:28;;;;;;;;;21.33;17.67;;;;;25.72;38.53;100370.06;5057162;28;45835;-80
2023/01/19 15:09:53;;;;;;;;;20.00;18.67;;;;;25.78;38.43;100380.16;5057498;28;45860;-80
2023/01/19 15:12:23;;;;;;;;;18.00;18.00;;;;;25.77;38.35;100375.78;5056728;28;47201;-82
2023/01/19 15:14:48;;;;;;;;;23.33;19.67;;;;;25.86;38.12;100388.22;5057816;27;45595;-82
2023/01/19 15:17:28;;;;;;;;;17.33;17.33;;;;;25.89;38.08;100381.53;5057051;28;45451;-73
2023/01/19 15:19:55;;;;;;;;;20.67;17.67;;;;;25.77;38.03;100373.91;5055898;28;45867;-77
2023/01/19 15:22:21;;;;;;;;;16.00;15.00;;;;;25.85;38.06;100385.69;5066301;28;45734;-77
2023/01/19 15:24:48;;;;;;;;;16.67;15.67;;;;;25.98;38.23;100398.56;5054885;27;45518;-78
2023/01/19 15:27:13;;;;;;;;;17.67;16.00;;;;;26.03;38.17;100398.81;5062037;28;45515;-82
2023/01/19 15:29:39;;;;;;;;;15.00;15.00;;;;;26.05;37.91;100397.63;5072995;27;45515;-80
2023/01/19 15:32:10;;;;;;;;;16.67;16.67;;;;;26.14;38.18;100405.63;5062932;27;47166;-83
2023/01/19 15:34:35;;;;;;;;;15.67;15.33;;;;;26.20;38.02;100413.03;5066371;27;45486;-80
2023/01/19 15:37:00;;;;;;;;;16.33;15.67;;;;;26.25;38.08;100410.59;5070750;27;45301;-81
2023/01/19 15:39:26;;;;;;;;;15.33;13.67;;;;;26.30;38.12;100399.13;5075479;28;48661;-78
2023/01/19 15:41:52;;;;;;;;;18.00;15.33;;;;;26.37;37.50;100404.63;5074515;27;46283;-76
2023/01/19 15:44:17;;;;;;;;;15.33;13.33;;;;;26.46;37.80;100418.91;5059151;28;46121;-77
2023/01/19 15:46:42;;;;;;;;;14.00;13.33;;;;;26.52;37.93;100413.53;5055599;28;45511;-77
2023/01/19 15:49:08;;;;;;;;;14.33;14.00;;;;;26.55;37.99;100410.44;5059936;28;45620;-76
2023/01/19 15:51:33;;;;;;;;;16.33;14.33;;;;;26.60;37.67;100412.53;5068297;27;48811;-78
2023/01/19 15:53:58;;;;;;;;;14.67;10.33;;;;;26.64;37.37;100413.84;5058238;28;46682;-78
2023/01/19 15:56:27;;;;;;;;;13.67;13.00;;;;;26.65;37.07;100410.06;5065589;27;46031;-74
2023/01/19 15:58:53;;;;;;;;;15.67;12.00;;;;;26.75;37.71;100415.19;5059881;27;45400;-80
2023/01/19 16:01:21;;;;;;;;;28.33;25.67;;;;;26.80;37.80;100409.97;5070555;27;45467;-74
2023/01/19 16:03:47;;;;;;;;;40.50;29.00;;;;;26.80;37.02;100407.25;5045538;28;45467;-74
2023/01/19 16:06:15;;;;;;;;;26.67;23.00;;;;;26.82;37.28;100420.69;5057234;28;45490;-74
2023/01/19 16:08:40;;;;;;;;;31.00;25.00;;;;;26.79;37.17;100423.78;5061098;28;46163;-74
2023/01/19 16:11:11;;;;;;;;;30.33;28.00;;;;;26.77;36.87;100431.31;5070775;28;46038;-78
2023/01/19 16:13:38;;;;;;;;;41.50;33.25;;;;;26.74;36.61;100429.00;5055122;28;45490;-77
2023/01/19 16:16:05;;;;;;;;;41.50;31.00;;;;;26.61;36.67;100424.28;5059387;27;45799;-75
2023/01/19 16:18:30;;;;;;;;;33.33;26.00;;;;;26.42;36.17;100421.19;5077979;27;46080;-79
2023/01/19 16:20:55;;;;;;;;;35.25;26.25;;;;;26.26;36.18;100427.75;5068001;28;45909;-78
2023/01/19 16:23:21;;;;;;;;;30.75;27.00;;;;;26.15;36.66;100429.06;5072175;27;45733;-76
2023/01/19 16:26:03;;;;;;;;;39.00;24.75;;;;;26.05;36.27;100429.41;5070983;27;45372;-74
2023/01/19 16:28:30;;;;;;;;;35.00;27.33;;;;;26.01;36.29;100436.25;5074695;27;45861;-77
2023/01/19 16:30:55;;;;;;;;;31.33;24.67;;;;;25.99;36.34;100432.91;5060425;28;46230;-75
2023/01/19 16:33:20;;;;;;;;;32.00;23.00;;;;;26.05;36.49;100430.25;5056095;28;45593;-75
2023/01/19 16:35:46;;;;;;;;;31.33;26.67;;;;;26.12;36.28;100424.03;5054823;28;45936;-73
2023/01/19 16:38:11;;;;;;;;;27.00;20.33;;;;;26.17;36.16;100425.13;5055472;28;45564;-74
2023/01/19 16:40:37;;;;;;;;;28.33;25.00;;;;;26.24;36.45;100432.53;5064554;27;46574;-72
2023/01/19 16:43:03;;;;;;;;;22.67;18.67;;;;;26.30;36.30;100429.91;5058913;28;45568;-74
2023/01/19 16:45:28;;;;;;;;;22.00;18.00;;;;;26.30;36.34;100426.31;5059512;27;46889;-72
2023/01/19 16:47:53;;;;;;;;;26.67;18.67;;;;;26.30;36.08;100438.06;5058891;28;45734;-73
2023/01/19 16:50:19;;;;;;;;;24.00;17.00;;;;;26.31;36.04;100442.47;5055444;28;47024;-73
2023/01/19 16:52:44;;;;;;;;;23.00;20.67;;;;;26.31;35.86;100436.16;5067210;28;45793;-75
2023/01/19 16:55:10;;;;;;;;;28.00;19.00;;;;;26.32;36.16;100435.13;5063953;27;45509;-73
2023/01/19 16:57:37;;;;;;;;;22.00;18.33;;;;;26.31;36.00;100445.19;5056713;27;45734;-73
2023/01/19 17:00:04;;;;;;;;;18.00;14.33;;;;;26.31;35.91;100460.66;5071755;27;46107;-75
2023/01/19 17:02:30;;;;;;;;;16.33;16.00;;;;;26.27;35.73;100464.78;5060223;28;46963;-76
2023/01/19 17:04:55;;;;;;;;;16.00;15.67;;;;;26.12;36.01;100462.13;5059038;27;45490;-76
2023/01/19 17:07:20;;;;;;;;;20.00;17.33;;;;;25.99;35.27;100465.53;5050325;28;45475;-76
2023/01/19 17:09:46;;;;;;;;;16.67;14.00;;;;;25.86;35.19;100463.47;5065695;27;46231;-76
2023/01/19 17:12:11;;;;;;;;;24.00;19.33;;;;;25.76;35.54;100469.22;5070324;27;45579;-74
2023/01/19 17:14:37;;;;;;;;;18.33;16.33;;;;;25.67;35.42;100471.22;5072685;27;45455;-75
2023/01/19 17:17:03;;;;;;;;;19.67;19.33;;;;;25.59;35.64;100466.72;5076765;27;45471;-71
2023/01/19 17:19:29;;;;;;;;;20.33;18.67;;;;;25.52;35.52;100465.75;5065434;27;45615;-73
2023/01/19 17:21:54;;;;;;;;;21.67;16.00;;;;;25.47;35.77;100469.03;5079942;27;45455;-73
2023/01/19 17:24:19;;;;;;;;;21.33;17.00;;;;;25.43;35.50;100472.31;5074694;27;45396;-72
2023/01/19 17:26:47;;;;;;;;;18.00;18.00;;;;;25.41;35.83;100466.25;5069390;28;45460;-73
2023/01/19 17:29:13;;;;;;;;;17.00;14.00;;;;;25.39;35.47;100474.59;5064634;27;45701;-73
2023/01/19 17:31:39;;;;;;;;;14.33;13.67;;;;;25.36;35.78;100467.66;5058796;28;46511;-74
2023/01/19 17:34:05;;;;;;;;;18.67;16.00;;;;;25.36;35.76;100481.25;5058478;27;45656;-75
2023/01/19 17:36:32;;;;;;;;;18.33;16.33;;;;;25.32;35.56;100473.63;5056657;27;45444;-73
2023/01/19 17:38:59;;;;;;;;;18.00;18.00;;;;;25.21;35.46;100464.94;5060007;27;46454;-70
2023/01/19 17:41:29;;;;;;;;;16.33;14.33;;;;;25.17;35.77;100466.31;5062291;27;46059;-71
2023/01/19 17:43:56;;;;;;;;;17.33;14.67;;;;;25.12;35.64;100475.03;5063760;28;46613;-72
2023/01/19 17:46:24;;;;;;;;;17.00;14.67;;;;;25.14;35.87;100477.56;5074255;27;45675;-74
2023/01/19 17:48:51;;;;;;;;;8.33;5.67;;;;;25.14;35.81;100474.88;5069888;27;46464;-74
2023/01/19 17:51:16;;;;;;;;;16.33;13.33;;;;;25.18;35.69;100478.03;5046599;28;45717;-75
2023/01/19 17:53:41;;;;;;;;;16.00;16.00;;;;;25.23;35.73;100479.19;5051204;27;45950;-72
2023/01/19 17:56:09;;;;;;;;;16.33;15.00;;;;;25.32;35.80;100479.06;5060476;28;45479;-74
2023/01/19 17:58:34;;;;;;;;;15.00;14.67;;;;;25.37;35.91;100491.06;5070410;27;45518;-75
2023/01/19 18:01:13;;;;;;;;;14.00;11.00;;;;;25.45;35.91;100498.28;5067865;27;45519;-75
2023/01/19 18:03:39;;;;;;;;;14.67;11.67;;;;;25.50;36.21;100495.00;5062685;28;45579;-75
2023/01/19 18:06:04;;;;;;;;;13.00;11.33;;;;;25.54;35.90;100496.28;5066845;28;45656;-76
2023/01/19 18:08:31;;;;;;;;;15.33;13.33;;;;;25.59;35.85;100498.50;5061521;28;46461;-76
2023/01/19 18:10:58;;;;;;;;;19.67;15.00;;;;;25.61;35.77;100494.56;5078273;27;45371;-76
2023/01/19 18:13:24;;;;;;;;;15.33;12.00;;;;;25.65;35.81;100508.59;5071747;27;45466;-75
2023/01/19 18:15:49;;;;;;;;;15.67;14.00;;;;;25.68;35.93;100502.81;5073246;27;45494;-75
